Time;durP1;ratioP1;P1;durP2;ratioP2;P2;SDS_P1;SDS_P2;PMS_P1;PMS_P2;Temp;Humidity;BMP_temperature;BMP_pressure;BME280_temperature;BME280_humidity;BME280_pressure;Samples;Min_cycle;Max_cycle;Signal;HPM_P1;HPM_P2
2021/09/30 00:01:34;;;;;;;3.70;1.20;;;;;;;;;;5012954;28;20521;-65
2021/09/30 00:04:01;;;;;;;2.45;1.10;;;;;;;;;;5012760;28;20052;-64
2021/09/30 00:06:27;;;;;;;2.72;1.30;;;;;;;;;;5012781;28;20050;-65
2021/09/30 00:08:56;;;;;;;2.38;1.13;;;;;;;;;;5012805;28;20049;-64
2021/09/30 00:11:26;;;;;;;4.63;1.60;;;;;;;;;;5012757;28;20050;-65
2021/09/30 00:13:55;;;;;;;3.42;1.02;;;;;;;;;;5012806;28;20112;-64
2021/09/30 00:16:48;;;;;;;2.83;1.20;;;;;;;;;;5012948;28;20060;-64
2021/09/30 00:33:06;;;;;;;3.35;1.40;;;;;;;;;;5012472;28;20048;-65
2021/09/30 00:35:41;;;;;;;3.35;1.10;;;;;;;;;;5012680;28;20065;-65
2021/09/30 00:41:09;;;;;;;4.20;1.80;;;;;;;;;;5012193;28;20077;-65
2021/09/30 00:46:24;;;;;;;4.78;1.15;;;;;;;;;;5012372;28;20072;-66
2021/09/30 00:49:02;;;;;;;4.00;1.02;;;;;;;;;;5012303;28;20061;-66
2021/09/30 00:51:35;;;;;;;4.20;1.23;;;;;;;;;;5012360;28;20480;-64
2021/09/30 02:21:56;;;;;;;4.38;1.33;;;;;;;;;;5088451;28;20055;-65
2021/09/30 02:24:47;;;;;;;4.07;1.27;;;;;;;;;;5088166;28;20493;-65
2021/09/30 02:30:08;;;;;;;3.88;1.40;;;;;;;;;;5065008;28;20048;-64
2021/09/30 03:00:19;;;;;;;4.05;1.17;;;;;;;;;;5054091;28;20106;-66
2021/09/30 03:02:52;;;;;;;4.88;1.50;;;;;;;;;;5054063;28;20060;-66
2021/09/30 03:05:21;;;;;;;3.03;1.20;;;;;;;;;;5054194;28;20052;-64
2021/09/30 03:07:53;;;;;;;5.18;1.35;;;;;;;;;;5054393;28;20053;-64
2021/09/30 03:10:21;;;;;;;5.25;1.45;;;;;;;;;;5054101;28;20056;-64
2021/09/30 03:12:50;;;;;;;4.47;1.70;;;;;;;;;;5053917;28;20566;-63
2021/09/30 03:15:29;;;;;;;5.68;2.40;;;;;;;;;;5054182;28;20476;-64
2021/09/30 03:18:12;;;;;;;5.53;2.15;;;;;;;;;;5054572;28;20518;-64
2021/09/30 03:20:46;;;;;;;5.32;1.83;;;;;;;;;;5053955;28;20106;-64
2021/09/30 03:23:15;;;;;;;4.53;1.50;;;;;;;;;;5053619;28;20103;-64
2021/09/30 03:25:46;;;;;;;5.38;1.50;;;;;;;;;;5053829;28;20118;-66
2021/09/30 03:28:13;;;;;;;4.10;1.52;;;;;;;;;;5053801;28;20103;-65
2021/09/30 03:30:40;;;;;;;8.57;2.15;;;;;;;;;;5053774;28;20097;-63
2021/09/30 03:33:09;;;;;;;4.53;1.40;;;;;;;;;;5054197;28;20048;-64
2021/09/30 03:35:38;;;;;;;3.00;1.10;;;;;;;;;;5053685;28;20044;-65
2021/09/30 03:38:06;;;;;;;4.32;1.30;;;;;;;;;;5053655;28;20490;-64
2021/09/30 03:40:36;;;;;;;4.68;1.38;;;;;;;;;;5053553;28;20048;-64
2021/09/30 03:43:03;;;;;;;4.38;1.50;;;;;;;;;;5053267;28;20044;-63
2021/09/30 03:45:31;;;;;;;4.53;1.25;;;;;;;;;;5053307;28;20051;-64
2021/09/30 03:47:57;;;;;;;3.15;1.20;;;;;;;;;;5052355;28;20053;-63
2021/09/30 03:50:26;;;;;;;2.78;1.35;;;;;;;;;;5053149;28;20067;-63
2021/09/30 03:53:01;;;;;;;3.95;1.70;;;;;;;;;;5053343;28;20143;-66
2021/09/30 03:55:37;;;;;;;4.18;1.30;;;;;;;;;;5058637;28;20492;-65
2021/09/30 04:00:50;;;;;;;2.67;1.30;;;;;;;;;;5073317;28;20091;-64
2021/09/30 04:03:17;;;;;;;3.78;1.58;;;;;;;;;;5073022;28;20052;-64
2021/09/30 04:05:44;;;;;;;4.00;1.30;;;;;;;;;;5073311;28;20049;-64
2021/09/30 04:08:11;;;;;;;3.30;1.30;;;;;;;;;;5072978;28;20056;-64
2021/09/30 04:10:38;;;;;;;3.25;1.38;;;;;;;;;;5072842;28;20457;-64
2021/09/30 04:13:06;;;;;;;5.00;1.30;;;;;;;;;;5072629;28;20059;-65
2021/09/30 04:15:33;;;;;;;4.55;1.63;;;;;;;;;;5072882;28;20478;-64
2021/09/30 04:18:00;;;;;;;3.75;1.33;;;;;;;;;;5072943;28;20051;-65
2021/09/30 04:20:27;;;;;;;6.82;2.25;;;;;;;;;;5072688;28;20044;-65
2021/09/30 04:22:54;;;;;;;4.13;1.50;;;;;;;;;;5072976;28;20501;-64
2021/09/30 04:25:21;;;;;;;5.05;1.38;;;;;;;;;;5072213;28;20052;-65
2021/09/30 04:27:48;;;;;;;3.40;1.40;;;;;;;;;;5072360;28;20044;-64
2021/09/30 04:30:16;;;;;;;4.95;1.52;;;;;;;;;;5072520;28;20053;-65
2021/09/30 04:32:43;;;;;;;3.92;1.67;;;;;;;;;;5072391;28;20052;-64
2021/09/30 04:35:11;;;;;;;5.07;1.75;;;;;;;;;;5072364;28;20414;-64
2021/09/30 04:37:38;;;;;;;6.20;1.75;;;;;;;;;;5072354;28;20068;-64
2021/09/30 04:40:07;;;;;;;5.15;1.58;;;;;;;;;;5072193;28;20060;-64
2021/09/30 04:42:34;;;;;;;4.38;1.63;;;;;;;;;;5072437;28;20071;-64
2021/09/30 04:45:01;;;;;;;3.35;1.50;;;;;;;;;;5071774;28;20052;-65
2021/09/30 04:47:30;;;;;;;4.28;1.65;;;;;;;;;;5077048;22;20056;-67
2021/09/30 04:49:57;;;;;;;6.30;1.70;;;;;;;;;;5032449;28;20057;-67
2021/09/30 04:52:24;;;;;;;3.78;1.45;;;;;;;;;;5032145;28;20121;-68
2021/09/30 04:54:51;;;;;;;6.22;1.45;;;;;;;;;;5031823;28;20057;-67
2021/09/30 04:57:18;;;;;;;7.90;2.80;;;;;;;;;;5032461;28;20057;-68
2021/09/30 04:59:45;;;;;;;5.07;1.60;;;;;;;;;;5031855;28;20042;-65
2021/09/30 05:02:12;;;;;;;4.63;2.53;;;;;;;;;;5032039;28;20128;-65
2021/09/30 05:04:41;;;;;;;5.85;1.95;;;;;;;;;;5031934;28;20410;-66
2021/09/30 05:07:08;;;;;;;4.07;1.70;;;;;;;;;;5032052;28;20055;-65
2021/09/30 05:09:35;;;;;;;7.30;1.92;;;;;;;;;;5031740;28;20504;-68
2021/09/30 05:12:03;;;;;;;8.07;1.73;;;;;;;;;;5032138;28;20204;-67
2021/09/30 05:14:30;;;;;;;5.60;2.00;;;;;;;;;;5031761;28;20093;-68
2021/09/30 05:16:57;;;;;;;4.63;1.52;;;;;;;;;;5031963;28;20045;-67
2021/09/30 05:19:24;;;;;;;3.97;1.45;;;;;;;;;;5031793;28;20045;-67
2021/09/30 05:21:52;;;;;;;5.65;2.00;;;;;;;;;;5032385;28;20057;-66
2021/09/30 05:24:19;;;;;;;6.82;2.20;;;;;;;;;;5031474;28;20089;-66
2021/09/30 05:26:46;;;;;;;6.72;2.78;;;;;;;;;;5031932;28;20047;-66
2021/09/30 05:29:13;;;;;;;4.78;1.70;;;;;;;;;;5031887;28;20045;-66
2021/09/30 05:31:40;;;;;;;8.52;3.17;;;;;;;;;;5032552;28;20410;-67
2021/09/30 05:34:07;;;;;;;6.78;1.83;;;;;;;;;;5031423;28;20050;-66
2021/09/30 05:36:34;;;;;;;6.93;1.75;;;;;;;;;;5031676;28;20056;-65
2021/09/30 05:39:04;;;;;;;6.90;2.05;;;;;;;;;;5031462;28;20060;-66
2021/09/30 05:41:32;;;;;;;5.78;2.40;;;;;;;;;;5031702;28;20045;-68
2021/09/30 05:44:06;;;;;;;9.43;3.22;;;;;;;;;;5031723;28;20535;-68
2021/09/30 05:46:36;;;;;;;7.95;2.80;;;;;;;;;;5032005;28;20499;-68
2021/09/30 05:49:05;;;;;;;8.98;2.80;;;;;;;;;;5031376;28;20081;-67
2021/09/30 05:51:32;;;;;;;9.27;3.25;;;;;;;;;;5031405;28;20060;-69
2021/09/30 05:53:59;;;;;;;6.03;2.60;;;;;;;;;;5031179;28;20071;-66
2021/09/30 05:56:28;;;;;;;7.70;2.40;;;;;;;;;;5018469;28;20495;-69
2021/09/30 05:58:55;;;;;;;6.28;3.40;;;;;;;;;;5012083;28;20104;-63
2021/09/30 06:12:29;;;;;;;8.77;4.25;;;;;;;;;;4999917;28;20050;-63
2021/09/30 06:14:56;;;;;;;4.70;2.22;;;;;;;;;;5015214;28;20050;-65
2021/09/30 06:17:23;;;;;;;5.80;2.50;;;;;;;;;;5015484;28;20085;-65
2021/09/30 06:19:50;;;;;;;5.65;2.47;;;;;;;;;;5015070;28;20077;-65
2021/09/30 06:22:17;;;;;;;5.07;2.80;;;;;;;;;;5017769;28;20429;-65
2021/09/30 06:24:44;;;;;;;9.05;2.35;;;;;;;;;;5014780;28;20052;-65
2021/09/30 06:27:11;;;;;;;4.15;2.30;;;;;;;;;;5015086;28;20053;-64
2021/09/30 06:29:39;;;;;;;6.30;2.38;;;;;;;;;;5014983;28;20050;-65
2021/09/30 06:32:07;;;;;;;6.90;2.20;;;;;;;;;;5022761;28;20055;-64
2021/09/30 06:34:34;;;;;;;5.45;2.10;;;;;;;;;;5023605;28;20392;-64
2021/09/30 06:37:01;;;;;;;5.35;2.13;;;;;;;;;;5023670;28;20041;-64
2021/09/30 06:39:28;;;;;;;5.20;2.03;;;;;;;;;;5025965;28;20405;-64
2021/09/30 06:41:55;;;;;;;5.47;2.08;;;;;;;;;;5023708;28;20053;-64
2021/09/30 06:44:22;;;;;;;4.65;2.40;;;;;;;;;;5023535;28;20419;-65
2021/09/30 06:46:50;;;;;;;4.93;2.10;;;;;;;;;;5025245;28;20055;-64
2021/09/30 06:49:17;;;;;;;4.88;2.33;;;;;;;;;;5023535;28;20061;-65
2021/09/30 06:51:44;;;;;;;5.35;1.80;;;;;;;;;;5022966;28;20077;-65
2021/09/30 06:54:11;;;;;;;4.70;2.40;;;;;;;;;;5022794;28;20042;-65
2021/09/30 06:56:38;;;;;;;4.18;2.05;;;;;;;;;;5020922;28;20060;-65
2021/09/30 06:59:07;;;;;;;7.10;3.60;;;;;;;;;;5023263;28;20460;-65
2021/09/30 07:01:35;;;;;;;11.35;2.72;;;;;;;;;;5022269;28;20217;-65
2021/09/30 07:04:07;;;;;;;12.05;3.38;;;;;;;;;;5014378;28;20606;-65
2021/09/30 07:06:34;;;;;;;5.85;2.30;;;;;;;;;;5014372;28;20050;-65
2021/09/30 07:09:01;;;;;;;6.13;2.22;;;;;;;;;;5014485;28;20045;-65
2021/09/30 07:11:28;;;;;;;4.25;2.03;;;;;;;;;;5021811;28;20099;-65
2021/09/30 07:13:55;;;;;;;6.60;2.10;;;;;;;;;;5032118;28;20391;-64
2021/09/30 07:16:22;;;;;;;4.78;2.08;;;;;;;;;;5032442;28;20053;-65
2021/09/30 07:18:49;;;;;;;7.63;1.98;;;;;;;;;;5031893;28;20052;-65
2021/09/30 07:21:18;;;;;;;7.10;2.22;;;;;;;;;;5031839;28;20041;-64
2021/09/30 07:23:45;;;;;;;5.43;2.10;;;;;;;;;;5031565;28;20521;-63
2021/09/30 07:26:13;;;;;;;5.00;2.13;;;;;;;;;;5032079;28;20471;-66
2021/09/30 07:28:40;;;;;;;3.58;1.88;;;;;;;;;;5031781;28;20045;-65
2021/09/30 07:31:07;;;;;;;9.07;2.20;;;;;;;;;;5031612;28;20037;-64
2021/09/30 07:33:34;;;;;;;4.90;2.33;;;;;;;;;;5023885;28;20046;-67
2021/09/30 07:36:01;;;;;;;9.45;2.17;;;;;;;;;;5012131;28;20192;-64
2021/09/30 07:38:30;;;;;;;6.35;2.08;;;;;;;;;;5011878;28;20046;-64
2021/09/30 07:40:57;;;;;;;5.57;1.90;;;;;;;;;;5011529;28;20050;-64
2021/09/30 07:43:24;;;;;;;4.75;2.05;;;;;;;;;;5011610;28;20057;-64
2021/09/30 07:45:51;;;;;;;8.00;4.10;;;;;;;;;;5011064;28;20064;-65
2021/09/30 07:48:18;;;;;;;10.98;6.28;;;;;;;;;;5011258;28;20056;-65
2021/09/30 07:50:45;;;;;;;6.22;2.35;;;;;;;;;;5011647;28;20128;-69
2021/09/30 07:53:14;;;;;;;5.57;2.05;;;;;;;;;;5011888;28;20050;-66
2021/09/30 07:55:42;;;;;;;7.47;2.10;;;;;;;;;;5018746;28;20057;-65
2021/09/30 07:58:10;;;;;;;10.45;2.60;;;;;;;;;;5031185;28;20438;-65
2021/09/30 08:00:37;;;;;;;7.82;3.10;;;;;;;;;;5030455;28;20103;-65
2021/09/30 08:03:04;;;;;;;6.45;2.92;;;;;;;;;;5031213;28;20304;-66
2021/09/30 08:05:34;;;;;;;6.05;2.10;;;;;;;;;;5031025;28;20041;-65
2021/09/30 08:08:02;;;;;;;6.90;2.40;;;;;;;;;;5031151;28;20049;-68
2021/09/30 08:10:29;;;;;;;5.97;1.90;;;;;;;;;;5029692;28;20045;-64
2021/09/30 08:12:58;;;;;;;5.82;1.70;;;;;;;;;;5031004;28;20076;-66
2021/09/30 08:15:25;;;;;;;6.63;2.00;;;;;;;;;;5030746;28;20047;-64
2021/09/30 08:17:52;;;;;;;5.05;1.35;;;;;;;;;;5030982;28;20041;-65
2021/09/30 08:20:20;;;;;;;4.93;1.90;;;;;;;;;;5030555;28;20132;-66
2021/09/30 08:22:47;;;;;;;5.28;1.80;;;;;;;;;;5030509;28;20106;-65
2021/09/30 08:25:15;;;;;;;7.00;2.08;;;;;;;;;;5030441;28;20521;-65
2021/09/30 08:27:42;;;;;;;6.40;2.28;;;;;;;;;;5030579;28;20042;-65
2021/09/30 08:30:12;;;;;;;11.50;4.65;;;;;;;;;;5030288;28;20154;-66
2021/09/30 08:32:39;;;;;;;9.35;3.55;;;;;;;;;;5029820;28;20497;-67
2021/09/30 08:35:07;;;;;;;5.72;1.88;;;;;;;;;;5029696;28;20067;-64
2021/09/30 08:37:36;;;;;;;4.32;1.90;;;;;;;;;;5030586;28;20051;-65
2021/09/30 08:40:05;;;;;;;8.63;1.77;;;;;;;;;;5029895;28;20061;-66
2021/09/30 08:42:32;;;;;;;8.00;2.33;;;;;;;;;;5030049;28;20049;-67
2021/09/30 08:44:59;;;;;;;5.55;2.40;;;;;;;;;;5029557;28;20499;-66
2021/09/30 08:47:27;;;;;;;5.22;2.30;;;;;;;;;;5029684;28;20057;-64
2021/09/30 08:49:54;;;;;;;7.72;2.10;;;;;;;;;;5029805;28;20049;-66
2021/09/30 08:52:21;;;;;;;6.43;1.83;;;;;;;;;;5029710;28;20053;-65
2021/09/30 08:54:48;;;;;;;5.47;2.33;;;;;;;;;;5029772;28;20049;-65
2021/09/30 08:57:15;;;;;;;9.05;2.10;;;;;;;;;;5030049;28;20407;-65
2021/09/30 08:59:42;;;;;;;9.52;3.60;;;;;;;;;;5029819;28;20646;-66
2021/09/30 09:02:11;;;;;;;6.50;2.42;;;;;;;;;;5029999;28;20505;-66
2021/09/30 09:04:52;;;;;;;7.38;2.28;;;;;;;;;;5029947;28;20046;-66
2021/09/30 09:07:23;;;;;;;6.60;2.50;;;;;;;;;;5030432;28;20045;-66
2021/09/30 09:09:51;;;;;;;8.23;3.40;;;;;;;;;;5029811;28;20045;-66
2021/09/30 09:12:18;;;;;;;10.35;4.40;;;;;;;;;;5030302;28;20057;-67
2021/09/30 09:14:46;;;;;;;6.50;1.98;;;;;;;;;;5029468;28;20046;-66
2021/09/30 09:17:15;;;;;;;6.20;2.80;;;;;;;;;;5029876;28;20049;-67
2021/09/30 09:19:46;;;;;;;6.60;1.60;;;;;;;;;;5030069;28;20406;-68
2021/09/30 09:22:15;;;;;;;7.63;2.70;;;;;;;;;;5029712;28;20133;-68
2021/09/30 09:24:59;;;;;;;6.63;1.80;;;;;;;;;;5029603;28;20418;-68
2021/09/30 09:27:45;;;;;;;7.00;1.98;;;;;;;;;;5029469;28;20668;-65
2021/09/30 09:30:25;;;;;;;7.07;2.03;;;;;;;;;;5029679;28;20150;-68
2021/09/30 09:33:00;;;;;;;;;;;;;;;;;;5030060;28;20049;-65
2021/09/30 09:35:28;;;;;;;5.18;1.75;;;;;;;;;;5029327;28;20420;-66
2021/09/30 09:38:01;;;;;;;4.88;2.42;;;;;;;;;;5030215;28;20052;-67
2021/09/30 09:40:28;;;;;;;2.83;1.38;;;;;;;;;;5029312;28;20095;-67
2021/09/30 09:42:55;;;;;;;5.53;1.30;;;;;;;;;;5029447;28;20050;-67
2021/09/30 09:45:53;;;;;;;8.18;1.70;;;;;;;;;;5029962;28;20422;-67
2021/09/30 09:48:20;;;;;;;5.75;2.20;;;;;;;;;;5033116;28;20053;-67
2021/09/30 09:50:51;;;;;;;5.30;1.40;;;;;;;;;;5033332;28;20497;-67
2021/09/30 09:53:18;;;;;;;;;;;;;;;;;;5033802;28;20053;-67
2021/09/30 09:55:46;;;;;;;4.63;2.00;;;;;;;;;;5026090;28;19940;-67
2021/09/30 09:58:15;;;;;;;2.78;1.25;;;;;;;;;;5013451;28;20149;-67
2021/09/30 10:00:58;;;;;;;5.00;1.65;;;;;;;;;;5013528;28;20054;-67
2021/09/30 10:03:27;;;;;;;3.67;1.10;;;;;;;;;;5012918;28;20060;-67
2021/09/30 10:05:56;;;;;;;5.13;1.40;;;;;;;;;;5013722;28;20054;-67
2021/09/30 10:08:24;;;;;;;5.05;2.08;;;;;;;;;;5013244;28;20049;-67
2021/09/30 10:10:53;;;;;;;5.07;1.50;;;;;;;;;;5013322;28;20048;-67
2021/09/30 10:13:21;;;;;;;4.15;1.52;;;;;;;;;;5012954;28;20050;-67
2021/09/30 10:15:53;;;;;;;4.65;1.40;;;;;;;;;;5013425;28;20064;-67
2021/09/30 10:18:22;;;;;;;3.60;1.45;;;;;;;;;;5013229;28;20438;-67
2021/09/30 10:20:50;;;;;;;7.03;1.67;;;;;;;;;;5012828;28;20052;-68
2021/09/30 10:23:23;;;;;;;3.17;1.33;;;;;;;;;;5012912;28;20550;-71
2021/09/30 10:26:02;;;;;;;2.85;1.08;;;;;;;;;;5013164;28;20490;-69
2021/09/30 10:28:40;;;;;;;6.93;2.03;;;;;;;;;;5023928;28;20049;-67
2021/09/30 10:31:43;;;;;;;4.65;1.70;;;;;;;;;;5033453;28;20053;-66
2021/09/30 10:34:43;;;;;;;3.33;1.30;;;;;;;;;;5019603;28;20084;-67
2021/09/30 10:37:18;;;;;;;4.20;1.20;;;;;;;;;;5034113;28;20068;-67
2021/09/30 10:40:09;;;;;;;2.35;1.20;;;;;;;;;;5033024;28;20534;-66
2021/09/30 10:42:53;;;;;;;3.38;1.20;;;;;;;;;;5033243;28;20072;-67
2021/09/30 10:45:21;;;;;;;4.60;1.50;;;;;;;;;;5032807;28;20414;-67
2021/09/30 10:47:55;;;;;;;5.15;1.60;;;;;;;;;;5032782;28;20046;-67
2021/09/30 10:50:45;;;;;;;7.65;2.83;;;;;;;;;;5033312;28;20481;-68
2021/09/30 10:53:13;;;;;;;7.47;2.50;;;;;;;;;;5032896;28;20052;-67
2021/09/30 10:55:41;;;;;;;5.85;2.90;;;;;;;;;;5031200;23;20049;-65
2021/09/30 10:58:21;;;;;;;8.75;2.25;;;;;;;;;;4992895;28;20513;-66
2021/09/30 11:00:57;;;;;;;4.45;1.40;;;;;;;;;;4992957;28;20388;-68
2021/09/30 11:03:26;;;;;;;6.07;1.80;;;;;;;;;;4992984;28;20136;-64
2021/09/30 11:06:26;;;;;;;5.22;1.75;;;;;;;;;;4992396;28;20113;-64
2021/09/30 11:09:14;;;;;;;4.57;1.35;;;;;;;;;;4992676;28;20054;-65
2021/09/30 11:11:48;;;;;;;3.72;1.25;;;;;;;;;;4985287;28;20309;-65
2021/09/30 11:14:25;;;;;;;3.85;1.40;;;;;;;;;;4976417;28;20094;-64
2021/09/30 11:16:54;;;;;;;4.72;1.20;;;;;;;;;;4989086;28;20503;-63
2021/09/30 11:19:30;;;;;;;4.50;1.70;;;;;;;;;;4992374;28;20407;-65
2021/09/30 11:22:00;;;;;;;5.72;1.60;;;;;;;;;;4992682;28;20093;-65
2021/09/30 11:24:31;;;;;;;;;;;;;;;;;;4992929;28;20054;-65
2021/09/30 11:27:10;;;;;;;;;;;;;;;;;;4987914;28;19922;-65
2021/09/30 11:29:37;;;;;;;3.58;1.38;;;;;;;;;;4982764;28;19922;-65
2021/09/30 11:32:27;;;;;;;7.85;1.75;;;;;;;;;;4981650;28;20510;-65
2021/09/30 11:34:57;;;;;;;4.22;1.63;;;;;;;;;;4981758;28;20082;-66
2021/09/30 11:37:27;;;;;;;15.10;3.45;;;;;;;;;;4981756;28;20551;-65
2021/09/30 11:39:57;;;;;;;7.28;2.80;;;;;;;;;;4982456;28;20048;-65
2021/09/30 11:42:34;;;;;;;4.30;2.67;;;;;;;;;;4983099;28;20428;-65
2021/09/30 11:45:05;;;;;;;5.38;1.90;;;;;;;;;;4982708;28;20046;-66
2021/09/30 11:47:33;;;;;;;8.80;3.03;;;;;;;;;;4981116;28;20072;-67
2021/09/30 11:50:03;;;;;;;4.38;1.98;;;;;;;;;;4981283;28;20298;-64
2021/09/30 11:52:30;;;;;;;4.20;1.50;;;;;;;;;;4983927;28;20089;-66
2021/09/30 11:55:10;;;;;;;6.22;2.05;;;;;;;;;;4985095;28;20296;-63
2021/09/30 11:57:38;;;;;;;6.53;2.57;;;;;;;;;;4980839;28;20054;-64
2021/09/30 12:00:10;;;;;;;12.07;4.97;;;;;;;;;;4979480;28;20075;-65
2021/09/30 12:02:37;;;;;;;8.75;3.92;;;;;;;;;;4972328;28;20093;-64
2021/09/30 12:05:05;;;;;;;6.00;2.92;;;;;;;;;;4972424;28;20420;-65
2021/09/30 12:07:32;;;;;;;4.32;1.35;;;;;;;;;;4972121;28;20046;-64
2021/09/30 12:10:01;;;;;;;3.10;1.27;;;;;;;;;;4972349;28;20058;-65
2021/09/30 12:12:29;;;;;;;4.68;1.63;;;;;;;;;;4972387;28;20053;-64
2021/09/30 12:14:58;;;;;;;3.78;1.70;;;;;;;;;;4971881;28;20137;-66
2021/09/30 12:17:30;;;;;;;6.97;1.85;;;;;;;;;;4972407;28;20086;-65
2021/09/30 12:19:57;;;;;;;6.28;2.25;;;;;;;;;;4972314;28;20488;-65
2021/09/30 12:22:27;;;;;;;4.20;1.50;;;;;;;;;;4972066;28;20141;-65
2021/09/30 12:24:56;;;;;;;5.10;1.30;;;;;;;;;;4973125;28;20059;-65
2021/09/30 12:27:29;;;;;;;6.63;2.22;;;;;;;;;;4981963;28;20500;-65
2021/09/30 12:30:05;;;;;;;5.97;2.60;;;;;;;;;;4981953;28;20047;-65
2021/09/30 12:32:35;;;;;;;9.15;3.60;;;;;;;;;;4981554;28;20047;-64
2021/09/30 12:35:05;;;;;;;3.47;1.33;;;;;;;;;;4980305;28;20121;-64
2021/09/30 12:37:34;;;;;;;8.75;3.88;;;;;;;;;;4991330;28;20060;-66
2021/09/30 12:40:04;;;;;;;13.05;6.70;;;;;;;;;;4985203;28;20435;-63
2021/09/30 12:42:31;;;;;;;41.22;34.92;;;;;;;;;;4991488;28;20132;-67
2021/09/30 12:45:00;;;;;;;55.42;44.50;;;;;;;;;;4990904;28;20457;-64
2021/09/30 12:47:38;;;;;;;8.02;2.80;;;;;;;;;;4991229;28;20046;-65
2021/09/30 12:50:07;;;;;;;28.25;20.77;;;;;;;;;;4991479;28;20533;-64
2021/09/30 12:52:35;;;;;;;8.68;4.50;;;;;;;;;;4982879;28;20590;-64
2021/09/30 12:55:26;;;;;;;6.10;1.48;;;;;;;;;;4982027;28;20113;-65
2021/09/30 12:57:54;;;;;;;3.58;1.27;;;;;;;;;;4981143;28;20404;-64
2021/09/30 13:00:24;;;;;;;14.20;8.65;;;;;;;;;;4981693;28;20061;-66
2021/09/30 13:02:55;;;;;;;6.03;1.40;;;;;;;;;;4980474;28;20053;-66
2021/09/30 13:05:23;;;;;;;4.25;1.60;;;;;;;;;;4980162;28;20062;-66
2021/09/30 13:07:55;;;;;;;6.00;2.78;;;;;;;;;;4981182;28;20042;-64
2021/09/30 13:10:30;;;;;;;6.75;1.60;;;;;;;;;;4974061;28;20090;-66
2021/09/30 13:13:02;;;;;;;4.82;1.25;;;;;;;;;;4971800;28;20382;-65
2021/09/30 13:15:40;;;;;;;5.88;2.42;;;;;;;;;;4972040;28;20500;-65
2021/09/30 13:18:09;;;;;;;7.75;1.73;;;;;;;;;;4971960;28;20059;-65
2021/09/30 13:20:37;;;;;;;5.68;1.83;;;;;;;;;;4971686;28;20658;-64
2021/09/30 13:23:04;;;;;;;3.70;1.77;;;;;;;;;;4972078;28;20113;-65
2021/09/30 13:25:31;;;;;;;5.72;1.65;;;;;;;;;;4971291;28;20133;-65
2021/09/30 13:27:59;;;;;;;6.82;2.50;;;;;;;;;;4971625;28;20531;-64
2021/09/30 13:30:29;;;;;;;3.38;1.35;;;;;;;;;;4971611;28;20500;-65
2021/09/30 13:33:00;;;;;;;6.72;1.77;;;;;;;;;;4971390;28;20051;-65
2021/09/30 13:35:29;;;;;;;4.28;1.95;;;;;;;;;;4971186;28;20126;-63
2021/09/30 13:37:57;;;;;;;4.28;1.50;;;;;;;;;;4971346;28;20561;-66
2021/09/30 13:40:26;;;;;;;4.55;1.38;;;;;;;;;;4971843;28;20496;-66
2021/09/30 13:42:54;;;;;;;5.15;1.48;;;;;;;;;;4971647;28;20073;-66
2021/09/30 13:45:22;;;;;;;3.58;1.40;;;;;;;;;;4972156;28;20043;-65
2021/09/30 13:47:50;;;;;;;3.63;1.50;;;;;;;;;;4972126;28;20051;-64
2021/09/30 13:50:21;;;;;;;3.03;1.30;;;;;;;;;;4970771;28;20146;-65
2021/09/30 13:52:50;;;;;;;5.00;1.40;;;;;;;;;;4970940;28;20077;-66
2021/09/30 13:55:18;;;;;;;5.32;1.80;;;;;;;;;;4974015;28;20051;-65
2021/09/30 13:57:45;;;;;;;7.10;1.85;;;;;;;;;;4990627;28;20050;-67
2021/09/30 14:00:15;;;;;;;3.83;1.55;;;;;;;;;;4990614;28;20141;-64
2021/09/30 14:02:45;;;;;;;5.72;2.03;;;;;;;;;;4990517;28;20057;-65
2021/09/30 14:05:14;;;;;;;11.65;5.10;;;;;;;;;;4990659;28;20046;-66
2021/09/30 14:07:43;;;;;;;11.25;4.85;;;;;;;;;;4988960;28;20129;-65
2021/09/30 14:10:13;;;;;;;6.15;2.88;;;;;;;;;;4990115;28;20133;-65
2021/09/30 14:12:42;;;;;;;5.30;1.80;;;;;;;;;;4990650;28;20089;-66
2021/09/30 14:15:09;;;;;;;4.85;1.40;;;;;;;;;;4990115;28;20165;-66
2021/09/30 14:17:39;;;;;;;7.45;3.50;;;;;;;;;;4990169;28;20057;-66
2021/09/30 14:20:07;;;;;;;;;;;;;;;;;;4990914;28;20500;-66
2021/09/30 14:22:34;;;;;;;3.22;1.30;;;;;;;;;;4990098;28;19922;-66
2021/09/30 14:25:02;;;;;;;3.70;1.42;;;;;;;;;;4990009;28;20585;-66
2021/09/30 14:27:30;;;;;;;5.20;2.55;;;;;;;;;;4990100;28;20054;-66
2021/09/30 14:29:58;;;;;;;6.43;2.13;;;;;;;;;;4989629;28;20056;-66
2021/09/30 14:32:24;;;;;;;8.18;1.83;;;;;;;;;;4992090;28;20056;-66
2021/09/30 14:34:51;;;;;;;8.07;2.30;;;;;;;;;;4993196;28;20050;-66
2021/09/30 14:37:19;;;;;;;7.50;2.63;;;;;;;;;;4993765;28;20133;-65
2021/09/30 14:39:47;;;;;;;8.50;2.10;;;;;;;;;;4993687;28;20418;-65
2021/09/30 14:42:15;;;;;;;5.55;1.70;;;;;;;;;;4993579;28;20054;-66
2021/09/30 14:44:42;;;;;;;7.38;2.20;;;;;;;;;;4993365;28;20050;-66
2021/09/30 14:47:09;;;;;;;9.70;4.22;;;;;;;;;;4993357;28;20058;-65
2021/09/30 14:49:39;;;;;;;11.25;5.68;;;;;;;;;;4993210;28;20074;-65
2021/09/30 14:52:07;;;;;;;8.23;2.20;;;;;;;;;;4993479;28;20078;-64
2021/09/30 14:54:34;;;;;;;6.10;2.47;;;;;;;;;;4993447;28;20042;-65
2021/09/30 14:57:01;;;;;;;8.32;3.60;;;;;;;;;;4992958;28;20521;-65
2021/09/30 14:59:30;;;;;;;7.95;3.05;;;;;;;;;;4993663;28;20392;-65
2021/09/30 15:01:57;;;;;;;6.28;2.70;;;;;;;;;;4993161;28;20579;-65
2021/09/30 15:04:24;;;;;;;4.95;2.50;;;;;;;;;;4993276;28;20497;-65
2021/09/30 15:06:51;;;;;;;6.88;1.63;;;;;;;;;;4993074;28;20061;-65
2021/09/30 15:09:18;;;;;;;4.18;1.48;;;;;;;;;;4992738;28;20061;-65
2021/09/30 15:11:45;;;;;;;4.47;2.10;;;;;;;;;;4992670;28;20068;-65
2021/09/30 15:14:13;;;;;;;6.88;1.80;;;;;;;;;;4992778;28;20052;-65
2021/09/30 15:16:49;;;;;;;5.72;1.55;;;;;;;;;;4992734;28;20062;-65
2021/09/30 15:19:18;;;;;;;3.92;1.50;;;;;;;;;;4993102;28;20081;-64
2021/09/30 15:21:45;;;;;;;3.72;1.52;;;;;;;;;;4993193;28;20484;-65
2021/09/30 15:24:14;;;;;;;3.92;1.55;;;;;;;;;;4992606;28;20050;-66
2021/09/30 15:26:43;;;;;;;4.35;1.73;;;;;;;;;;4992666;28;20050;-65
2021/09/30 15:29:11;;;;;;;6.43;2.10;;;;;;;;;;4992522;28;20120;-66
2021/09/30 15:31:42;;;;;;;13.90;6.03;;;;;;;;;;4992759;28;20051;-65
2021/09/30 15:34:10;;;;;;;8.00;3.25;;;;;;;;;;4992532;28;20263;-65
2021/09/30 15:36:37;;;;;;;11.77;5.78;;;;;;;;;;4992532;28;20457;-65
2021/09/30 15:39:06;;;;;;;13.70;6.75;;;;;;;;;;4992711;28;20411;-66
2021/09/30 15:41:34;;;;;;;7.82;2.90;;;;;;;;;;4992285;28;20047;-66
2021/09/30 15:44:01;;;;;;;8.15;2.47;;;;;;;;;;4992943;28;20310;-65
2021/09/30 15:46:29;;;;;;;8.95;2.30;;;;;;;;;;4992262;28;20055;-65
2021/09/30 15:48:57;;;;;;;6.70;1.75;;;;;;;;;;4992337;28;20057;-66
2021/09/30 15:51:25;;;;;;;4.38;1.67;;;;;;;;;;4992259;28;20411;-65
2021/09/30 15:53:52;;;;;;;4.30;1.85;;;;;;;;;;4992234;28;20060;-65
2021/09/30 15:56:19;;;;;;;9.75;5.65;;;;;;;;;;4979971;28;20054;-65
2021/09/30 15:58:46;;;;;;;15.90;9.13;;;;;;;;;;4973403;28;20500;-65
2021/09/30 16:01:13;;;;;;;9.15;4.20;;;;;;;;;;4973148;28;20353;-65
2021/09/30 16:03:40;;;;;;;6.55;1.80;;;;;;;;;;4972215;28;20061;-64
2021/09/30 16:06:09;;;;;;;5.60;1.60;;;;;;;;;;4972507;28;20061;-65
2021/09/30 16:08:36;;;;;;;5.78;2.63;;;;;;;;;;4972174;28;20109;-66
2021/09/30 16:11:03;;;;;;;4.28;1.50;;;;;;;;;;4972030;28;20077;-66
2021/09/30 16:13:30;;;;;;;9.02;1.70;;;;;;;;;;4971959;28;20146;-66
2021/09/30 16:15:58;;;;;;;7.72;3.00;;;;;;;;;;4972275;28;20051;-64
2021/09/30 16:18:25;;;;;;;6.05;2.10;;;;;;;;;;4972167;28;20062;-66
2021/09/30 16:20:52;;;;;;;4.53;1.25;;;;;;;;;;4972131;28;20510;-65
2021/09/30 16:23:21;;;;;;;7.38;2.08;;;;;;;;;;4971937;28;20061;-65
2021/09/30 16:25:48;;;;;;;4.88;1.75;;;;;;;;;;4972419;28;20057;-65
2021/09/30 16:28:16;;;;;;;3.58;1.42;;;;;;;;;;4972175;28;20590;-65
2021/09/30 16:30:44;;;;;;;8.52;2.00;;;;;;;;;;4972187;28;20059;-66
2021/09/30 16:33:11;;;;;;;5.80;1.70;;;;;;;;;;4971750;28;20065;-66
2021/09/30 16:35:38;;;;;;;4.05;1.35;;;;;;;;;;4972148;28;20055;-64
2021/09/30 16:38:05;;;;;;;7.03;1.98;;;;;;;;;;4972014;28;20144;-65
2021/09/30 16:40:34;;;;;;;3.25;1.23;;;;;;;;;;4972019;28;20054;-65
2021/09/30 16:43:01;;;;;;;3.40;1.20;;;;;;;;;;4972128;28;20054;-64
2021/09/30 16:45:28;;;;;;;4.53;1.73;;;;;;;;;;4971512;28;20069;-63
2021/09/30 16:47:55;;;;;;;3.10;1.25;;;;;;;;;;4971876;28;20057;-65
2021/09/30 16:50:22;;;;;;;5.35;2.03;;;;;;;;;;4971754;28;20047;-65
2021/09/30 16:52:50;;;;;;;4.65;1.50;;;;;;;;;;4972333;28;20058;-65
2021/09/30 16:55:19;;;;;;;4.95;1.77;;;;;;;;;;4974751;28;20051;-65
2021/09/30 16:57:48;;;;;;;4.18;1.48;;;;;;;;;;4990813;28;20060;-66
2021/09/30 17:00:17;;;;;;;3.45;1.38;;;;;;;;;;4990856;28;20057;-65
2021/09/30 17:02:44;;;;;;;4.68;1.67;;;;;;;;;;4990992;28;20054;-65
2021/09/30 17:05:12;;;;;;;4.68;1.58;;;;;;;;;;4991120;28;20093;-64
2021/09/30 17:07:39;;;;;;;4.72;1.60;;;;;;;;;;4990936;28;20069;-63
2021/09/30 17:10:10;;;;;;;4.43;1.40;;;;;;;;;;4990974;28;20419;-65
2021/09/30 17:12:37;;;;;;;3.92;1.70;;;;;;;;;;4991055;28;20058;-65
2021/09/30 17:15:08;;;;;;;5.55;1.77;;;;;;;;;;4990627;28;20046;-66
2021/09/30 17:17:35;;;;;;;7.05;1.85;;;;;;;;;;4990758;28;20050;-66
2021/09/30 17:20:03;;;;;;;2.92;1.50;;;;;;;;;;4990807;28;20419;-64
2021/09/30 17:22:30;;;;;;;6.90;2.10;;;;;;;;;;4990725;28;20134;-65
2021/09/30 17:24:57;;;;;;;4.22;1.20;;;;;;;;;;4990188;28;20080;-64
2021/09/30 17:27:24;;;;;;;4.90;1.70;;;;;;;;;;4990615;28;20054;-65
2021/09/30 17:29:51;;;;;;;11.43;5.60;;;;;;;;;;4990410;28;20047;-65